Terminal Aerodrome Forecast
Issued by NWS

Home | Current Version | Previous Version | Text Only | Print | Product List | Glossary On
Versions: 1 2 3 4 5 6 7 8 9 10 11 12 13 14 15 16 17 18 19 20
000
FTUS43 KMKX 210716 AAA
TAFUES
TAF AMD
KUES 210716Z 2107/2206 22008KT 4SM -SHRA BR SCT010 OVC015
     FM211000 23005KT 3SM BR VCSH OVC009
     FM211300 25006KT 4SM BR BKN020
     FM211600 28008KT 5SM BR SCT020
     FM211700 28007KT P6SM SCT150
     FM212300 22005KT P6SM FEW250=

USA.gov is the U.S. government's official web portal to all federal, state and local government web resources and services.